Aérodrome :
LOGIN :

S'inscrire | Disclaimer

   EN    FR    IT 

 










Légende :    VFR   VFR Marginal   IFR   IFR Intensif   IFR Très Intensif
Visi : 
Plafond : 
>= 8 km
>= 3000ft
5 à 8 km
1000 à 3000 ft
1500m à 5 km
500 à 1000 ft
800 à 1500m
200 à 500 ft
< 800m
< 200 ft
Symboles :   Orages  Brouillard  Fortes neiges  Fortes précipitations  Vent > 20 kt
SIGMETs :   Divers  Orages  Givrage  Turbulence  Onde Orograph.  Cendres Volcan.







- Altitude de l'aérodrome : 913 ft
- Voir les cartes d'approche


LFSX - Luxeuil

DERNIER METAR :
  • 230700Z AUTO 10003KT 050V180 CAVOK 07/03 Q1010 BECMG 22013KT

METARs EXPIRÉS :
  • 230630Z AUTO 08005KT CAVOK 06/03 Q1010 BECMG 22013KT
  • 230600Z AUTO 08005KT CAVOK 07/03 Q1010 NOSIG
  • 230530Z AUTO 06005KT 030V100 CAVOK 07/04 Q1010
  • 230500Z AUTO 08004KT 040V100 CAVOK 07/03 Q1010
  • 230430Z AUTO 08005KT 050V140 CAVOK 08/04 Q1010

TAF AMD TAF LFSX
Valide du 23 à 05h jusqu'au 24 à 03h UTC


230435Z 2305/2403 08005KT CAVOK
BECMG 2308/2310 22013KT
BECMG 2318/2320 09004KT
Pas de NOTAMs connus pour ce terrain.
1 SIGMET publié pour la FIR Reims (LFEE) :
 
Turbulence forte
LFEE SIGMET 1 VALID 230500/230900 LFPW
LFEE REIMS FIR/UIR SEV TURB OBS WI N4630 E00545 - N4630 E00445 - N4700 E00430 - N4830 E00600 - N4815 E00700 SFC/FL080 STNR NC=



MET'MAP, la Météo Aéronautique d'un coup d'oeil ! - Copyright ORBIFLY Décembre 2007 - Disclaimer

ORBIFLY MET'MAP TEAM :

Programmation & Développement : Alexandra Zaïnal
Conception & Développement : Baudouin d'Aumeries
Co-Programmation & Développement : Marc-Olivier Méhu
Soutien technique & logistique : Manuel Goepfert

Contact : metmap@orbifly.com




SOURCES & CREDITS :

   NOAA